LFRB/BES METAR and TAF weather

Enter ICAO airport designator
Station Type Date Time Source
LFRB METAR 2019/08/24 22:30 UTC NOAA

LFRB 242230Z AUTO 24004KT CAVOK 16/14 Q1017 TEMPO BKN010


Station Type Date Time Source
LFRB Decoded METAR 2019/08/24 22:30 UTC NOAA

Station name not available
Aug 24, 2019 - 06:30 PM EDT / 2019.08.24 2230 UTC
Wind: from the WSW (240 degrees) at 5 MPH (4 KT):0
Visibility: greater than 7 mile(s):0
Temperature: 60 F (16 C)
Dew Point: 57 F (14 C)
Relative Humidity: 87%
Pressure (altimeter): 30.03 in. Hg (1017 hPa)
ob: LFRB 242230Z AUTO 24004KT CAVOK 16/14 Q1017 TEMPO BKN010
cycle: 22

Station Type Date Time Source
LFRB TAF 2019/08/24 21:21 UTC NOAA

TAF
AMD TAF
AMD LFRB 242115Z 2421/2524 24005KT 9999 SCT012
TEMPO 2421/2510 BKN010 PROB30
TEMPO 2503/2508 4000 BR

Example: see airport list